Time;durP1;ratioP1;P1;durP2;ratioP2;P2;SDS_P1;SDS_P2;PMS_P1;PMS_P2;Temp;Humidity;BMP_temperature;BMP_pressure;BME280_temperature;BME280_humidity;BME280_pressure;Samples;Min_cycle;Max_cycle;Signal;HPM_P1;HPM_P2
2022/03/26 00:00:24;;;;;;;27.20;12.97;;;;;;;6.83;81.44;101844.16;5073028;28;20182;-80
2022/03/26 00:02:51;;;;;;;14.67;10.77;;;;;;;6.79;81.77;101841.09;5072757;28;20576;-80
2022/03/26 00:05:17;;;;;;;15.30;11.67;;;;;;;6.75;81.72;101845.41;5071471;28;20645;-78
2022/03/26 00:07:42;;;;;;;20.70;12.13;;;;;;;6.77;81.63;101845.97;5070970;28;20178;-77
2022/03/26 00:10:08;;;;;;;22.03;12.90;;;;;;;6.67;81.98;101837.72;5072788;28;20175;-79
2022/03/26 00:12:34;;;;;;;22.07;10.60;;;;;;;6.55;82.34;101826.13;5072684;28;20174;-75
2022/03/26 00:15:00;;;;;;;15.90;11.83;;;;;;;6.52;83.20;101834.78;5072637;28;20186;-79
2022/03/26 00:17:26;;;;;;;16.87;10.93;;;;;;;6.56;83.08;101835.91;5072356;28;20391;-76
2022/03/26 00:19:52;;;;;;;14.50;11.80;;;;;;;6.50;82.93;101829.56;5071190;28;20225;-78
2022/03/26 00:22:18;;;;;;;14.23;10.77;;;;;;;6.42;83.33;101831.91;5072646;28;20202;-78
2022/03/26 00:24:44;;;;;;;15.30;11.53;;;;;;;6.43;83.85;101828.94;5072376;28;20225;-78
2022/03/26 00:27:09;;;;;;;23.47;12.60;;;;;;;6.46;83.76;101843.91;5072284;28;20257;-79
2022/03/26 00:29:35;;;;;;;22.97;10.83;;;;;;;6.51;83.31;101842.09;5072321;28;20171;-78
2022/03/26 00:32:01;;;;;;;15.53;11.43;;;;;;;6.52;83.61;101846.47;5072384;28;20175;-78
2022/03/26 00:34:26;;;;;;;18.27;12.07;;;;;;;6.63;83.10;101860.16;5072101;28;20170;-79
2022/03/26 00:36:51;;;;;;;22.40;12.30;;;;;;;6.59;82.77;101851.69;5071566;28;20572;-78
2022/03/26 00:39:17;;;;;;;11.90;9.70;;;;;;;6.53;82.93;101847.28;5063020;28;20675;-81
2022/03/26 00:41:42;;;;;;;17.93;11.47;;;;;;;6.46;82.81;101836.59;5062809;28;20661;-78
2022/03/26 00:44:07;;;;;;;22.57;12.23;;;;;;;6.38;83.49;101831.59;5072190;28;20257;-80
2022/03/26 00:46:33;;;;;;;18.93;11.47;;;;;;;6.48;83.34;101837.16;5070525;28;20188;-76
2022/03/26 00:48:59;;;;;;;23.63;11.43;;;;;;;6.48;82.83;101829.00;5070625;28;20186;-82
2022/03/26 00:51:25;;;;;;;17.13;10.50;;;;;;;6.29;83.37;101824.94;5072315;28;20606;-78
2022/03/26 00:53:50;;;;;;;21.30;11.53;;;;;;;6.26;83.73;101822.72;5072546;28;20266;-79
2022/03/26 00:56:16;;;;;;;21.63;11.37;;;;;;;6.20;84.14;101813.66;5070593;28;20692;-76
2022/03/26 00:58:42;;;;;;;21.07;11.87;;;;;;;6.17;84.46;101824.19;5072478;28;20174;-74
2022/03/26 01:01:07;;;;;;;15.87;10.70;;;;;;;6.04;85.00;101810.97;5077219;28;20186;-78
2022/03/26 01:03:33;;;;;;;13.50;10.93;;;;;;;5.97;85.89;101808.44;5077046;28;20584;-74
2022/03/26 01:05:59;;;;;;;14.77;9.93;;;;;;;6.01;85.98;101819.63;5072210;28;20248;-74
2022/03/26 01:08:25;;;;;;;14.63;9.87;;;;;;;6.09;85.78;101827.34;5071884;28;20232;-71
2022/03/26 01:10:50;;;;;;;16.50;10.00;;;;;;;6.11;85.55;101820.59;5072217;28;20198;-75
2022/03/26 01:13:16;;;;;;;17.80;10.70;;;;;;;6.14;84.93;101830.94;5071719;28;20178;-78
2022/03/26 01:15:41;;;;;;;18.73;12.07;;;;;;;6.07;84.76;101810.47;5071617;28;20254;-73
2022/03/26 01:18:07;;;;;;;15.93;10.97;;;;;;;6.04;85.05;101819.94;5071311;28;20257;-72
2022/03/26 01:20:32;;;;;;;23.73;11.13;;;;;;;5.88;85.45;101807.16;5071609;28;20265;-72
2022/03/26 01:22:58;;;;;;;15.93;9.77;;;;;;;5.75;85.75;101802.88;5071016;28;20175;-71
2022/03/26 01:25:24;;;;;;;11.67;9.57;;;;;;;5.58;86.71;101792.03;5071286;28;20268;-70
2022/03/26 01:27:50;;;;;;;12.30;10.13;;;;;;;5.44;88.05;101787.97;5071339;28;20171;-73
2022/03/26 01:30:15;;;;;;;22.73;10.93;;;;;;;5.41;88.74;101793.06;5071345;28;20778;-71
2022/03/26 01:32:43;;;;;;;26.20;12.30;;;;;;;5.52;89.15;101803.03;5071234;28;20182;-71
2022/03/26 01:35:09;;;;;;;20.90;9.87;;;;;;;5.48;88.54;101805.41;5071248;28;20228;-70
2022/03/26 01:37:34;;;;;;;16.63;10.20;;;;;;;5.36;89.08;101793.81;5071007;28;20179;-70
2022/03/26 01:40:00;;;;;;;16.63;11.37;;;;;;;5.35;89.39;101792.13;5070825;28;20553;-74
2022/03/26 01:42:26;;;;;;;16.03;10.57;;;;;;;5.41;89.62;101798.50;5070752;28;20178;-72
2022/03/26 01:44:51;;;;;;;12.23;10.63;;;;;;;5.34;89.45;101791.31;5071129;28;20225;-73
2022/03/26 01:47:17;;;;;;;23.13;11.17;;;;;;;5.23;89.85;101789.50;5070517;28;20228;-76
2022/03/26 01:49:42;;;;;;;13.23;10.53;;;;;;;5.15;90.58;101783.66;5070909;28;20167;-71
2022/03/26 01:52:10;;;;;;;19.67;10.43;;;;;;;5.20;90.83;101789.97;5070889;28;20759;-72
2022/03/26 01:54:37;;;;;;;21.97;10.83;;;;;;;5.17;90.98;101784.22;5070833;28;20262;-71
2022/03/26 01:57:03;;;;;;;19.07;11.73;;;;;;;5.09;91.36;101774.63;5070459;28;20194;-71
2022/03/26 01:59:28;;;;;;;14.27;10.83;;;;;;;5.12;91.34;101779.53;5070616;28;20173;-71
2022/03/26 02:01:53;;;;;;;26.83;11.43;;;;;;;5.23;91.09;101792.22;5070779;28;20310;-71
2022/03/26 02:04:19;;;;;;;17.27;11.43;;;;;;;5.21;90.53;101785.41;5070603;28;20202;-72
2022/03/26 02:06:44;;;;;;;21.27;9.97;;;;;;;5.17;90.79;101776.09;5070510;28;20635;-71
2022/03/26 02:09:11;;;;;;;18.17;10.30;;;;;;;5.09;91.32;101769.19;5070479;28;20167;-72
2022/03/26 02:11:40;;;;;;;21.33;10.07;;;;;;;5.10;91.74;101767.31;5070770;28;20225;-71
2022/03/26 02:14:08;;;;;;;16.90;9.57;;;;;;;5.08;92.06;101771.09;5070453;28;20210;-73
2022/03/26 02:16:34;;;;;;;16.20;11.50;;;;;;;5.12;91.84;101781.44;5070388;28;20179;-71
2022/03/26 02:19:00;;;;;;;18.53;11.67;;;;;;;5.14;91.45;101779.28;5070838;28;20419;-72
2022/03/26 02:21:26;;;;;;;18.67;11.40;;;;;;;5.12;91.47;101773.31;5070446;28;20257;-72
2022/03/26 02:23:54;;;;;;;20.00;11.43;;;;;;;5.17;90.84;101776.09;5070184;28;20202;-72
2022/03/26 02:26:27;;;;;;;18.13;10.93;;;;;;;5.01;90.86;101756.84;5070302;28;20634;-71
2022/03/26 02:28:54;;;;;;;18.37;13.23;;;;;;;4.93;91.68;101756.44;5070532;28;20178;-74
2022/03/26 02:31:19;;;;;;;18.80;10.13;;;;;;;4.91;91.99;101758.53;5070234;28;20232;-74
2022/03/26 02:33:45;;;;;;;14.77;10.30;;;;;;;4.78;91.93;101746.94;5069076;28;20186;-74
2022/03/26 02:36:11;;;;;;;13.63;9.87;;;;;;;4.64;93.21;101737.47;5074243;28;20208;-72
2022/03/26 02:38:37;;;;;;;17.80;12.00;;;;;;;4.77;94.13;101758.84;5074428;28;20190;-72
2022/03/26 02:41:04;;;;;;;14.03;10.50;;;;;;;4.88;93.82;101776.09;5074594;28;20173;-74
2022/03/26 02:43:30;;;;;;;21.20;11.40;;;;;;;4.99;92.80;101771.69;5074395;28;20209;-71
2022/03/26 02:45:55;;;;;;;16.50;10.53;;;;;;;5.13;92.27;101777.66;5074323;28;20185;-71
2022/03/26 02:48:21;;;;;;;16.90;11.50;;;;;;;5.19;91.27;101782.91;5073972;28;20182;-71
2022/03/26 02:50:47;;;;;;;24.30;11.20;;;;;;;5.12;90.51;101768.72;5074380;28;20177;-80
2022/03/26 02:53:12;;;;;;;21.43;12.37;;;;;;;5.15;90.84;101780.94;5074335;28;20239;-71
2022/03/26 02:55:39;;;;;;;14.57;11.27;;;;;;;5.20;90.29;101779.13;5073920;28;20254;-72
2022/03/26 02:58:06;;;;;;;23.40;12.30;;;;;;;5.31;89.80;101783.69;5073884;28;20179;-71
2022/03/26 03:00:32;;;;;;;30.60;13.67;;;;;;;5.38;89.02;101776.25;5074032;28;20190;-77
2022/03/26 03:02:57;;;;;;;15.00;12.27;;;;;;;5.40;88.53;101786.00;5074393;28;20183;-72
2022/03/26 03:05:23;;;;;;;17.83;11.97;;;;;;;5.45;88.55;101788.81;5074012;28;20182;-76
2022/03/26 03:07:48;;;;;;;19.60;11.40;;;;;;;5.23;88.91;101770.53;5073777;28;20613;-76
2022/03/26 03:10:15;;;;;;;17.03;11.53;;;;;;;5.21;88.83;101775.38;5073895;28;20179;-74
2022/03/26 03:12:47;;;;;;;19.10;12.47;;;;;;;5.27;89.19;101774.41;5073959;28;20174;-75
2022/03/26 03:15:16;;;;;;;24.77;12.23;;;;;;;5.29;88.79;101783.09;5073840;28;20250;-73
2022/03/26 03:17:42;;;;;;;20.27;12.67;;;;;;;5.32;88.42;101779.91;5073621;28;20539;-71
2022/03/26 03:20:09;;;;;;;23.80;12.20;;;;;;;5.31;88.51;101780.97;5073639;28;20243;-76
2022/03/26 03:22:35;;;;;;;27.83;12.10;;;;;;;5.28;88.60;101788.78;5073631;28;20182;-71
2022/03/26 03:25:01;;;;;;;17.90;12.17;;;;;;;5.29;88.99;101787.72;5072223;28;20230;-81
2022/03/26 03:27:26;;;;;;;25.33;13.50;;;;;;;5.28;89.58;101786.88;5073442;28;20221;-72
2022/03/26 03:29:52;;;;;;;20.50;11.53;;;;;;;5.30;89.05;101783.94;5073541;28;20193;-71
2022/03/26 03:32:18;;;;;;;25.27;14.40;;;;;;;5.27;89.19;101784.44;5073493;28;20217;-71
2022/03/26 03:34:44;;;;;;;14.53;9.40;;;;;;;5.17;89.45;101767.97;5073492;28;20635;-71
2022/03/26 03:37:09;;;;;;;20.50;13.10;;;;;;;5.07;89.61;101752.38;5073040;28;20177;-72
2022/03/26 03:39:35;;;;;;;15.63;10.70;;;;;;;4.84;90.67;101734.31;5073334;28;20300;-71
2022/03/26 03:42:00;;;;;;;15.73;9.93;;;;;;;4.63;91.58;101730.41;5073251;28;20175;-79
2022/03/26 03:44:26;;;;;;;21.53;9.77;;;;;;;4.59;93.08;101731.91;5072816;28;20266;-71
2022/03/26 03:46:52;;;;;;;20.37;12.60;;;;;;;4.63;93.76;101748.50;5072115;28;20175;-75
2022/03/26 03:49:18;;;;;;;23.10;12.07;;;;;;;4.58;93.63;101748.41;5073107;28;20174;-75
2022/03/26 03:51:43;;;;;;;22.93;14.83;;;;;;;4.67;93.94;101749.69;5073322;28;20231;-74
2022/03/26 03:54:09;;;;;;;33.07;14.93;;;;;;;4.74;93.30;101759.28;5073105;28;20170;-71
2022/03/26 03:56:34;;;;;;;32.27;14.87;;;;;;;4.68;92.66;101745.91;5073474;28;20198;-72
2022/03/26 03:59:00;;;;;;;36.30;15.80;;;;;;;4.53;93.29;101738.31;5073234;28;20576;-73
2022/03/26 04:01:25;;;;;;;25.90;12.87;;;;;;;4.50;94.22;101736.09;5072949;28;20178;-74
2022/03/26 04:03:51;;;;;;;18.33;13.13;;;;;;;4.41;94.44;101738.31;5072961;28;20235;-76
2022/03/26 04:06:16;;;;;;;22.67;11.03;;;;;;;4.30;94.67;101722.09;5072773;28;20175;-77
2022/03/26 04:08:42;;;;;;;25.60;13.43;;;;;;;4.25;95.25;101720.13;5072690;28;20171;-72
2022/03/26 04:11:07;;;;;;;25.73;15.13;;;;;;;4.21;95.68;101718.97;5072641;28;20198;-76
2022/03/26 04:13:32;;;;;;;25.07;13.30;;;;;;;4.24;96.50;101725.78;5073147;28;20184;-72
2022/03/26 04:15:58;;;;;;;32.33;15.30;;;;;;;4.28;96.37;101735.06;5072715;28;20186;-72
2022/03/26 04:18:23;;;;;;;19.97;11.27;;;;;;;4.54;95.83;101742.66;5072549;28;20186;-73
2022/03/26 04:20:51;;;;;;;17.87;14.43;;;;;;;4.48;94.38;101730.91;5072559;28;20185;-72
2022/03/26 04:23:17;;;;;;;31.67;12.97;;;;;;;4.40;94.38;101723.16;5072559;28;20198;-80
2022/03/26 04:25:43;;;;;;;33.17;14.03;;;;;;;4.31;94.77;101718.34;5072617;28;20638;-74
2022/03/26 04:28:08;;;;;;;20.00;10.80;;;;;;;4.68;94.99;101735.09;5072339;28;20209;-81
2022/03/26 04:30:33;;;;;;;29.70;13.97;;;;;;;4.86;93.09;101734.06;5067815;28;20210;-75
2022/03/26 04:32:59;;;;;;;35.80;15.50;;;;;;;4.98;91.53;101740.28;5072140;28;20175;-71
2022/03/26 04:35:24;;;;;;;32.37;16.23;;;;;;;5.17;90.46;101751.72;5072260;28;20266;-73
2022/03/26 04:37:52;;;;;;;31.30;15.53;;;;;;;4.96;89.84;101729.69;5072070;28;20175;-74
2022/03/26 04:40:17;;;;;;;26.80;15.90;;;;;;;4.98;90.53;101738.38;5072225;28;20193;-78
2022/03/26 04:42:43;;;;;;;20.50;12.17;;;;;;;5.01;89.50;101735.19;5072299;28;20175;-77
2022/03/26 04:45:09;;;;;;;26.50;11.43;;;;;;;5.08;89.25;101743.19;5072189;28;20564;-74
2022/03/26 04:47:35;;;;;;;38.67;16.63;;;;;;;5.12;88.60;101747.03;5071948;28;20526;-73
2022/03/26 04:50:00;;;;;;;26.03;14.47;;;;;;;4.95;88.71;101727.22;5072081;28;20170;-84
2022/03/26 04:52:25;;;;;;;27.70;15.00;;;;;;;4.75;89.65;101716.81;5072042;28;20202;-72
2022/03/26 04:54:51;;;;;;;36.43;16.67;;;;;;;4.61;90.67;101715.44;5071923;28;20221;-73
2022/03/26 04:57:18;;;;;;;29.83;17.30;;;;;;;4.54;91.97;101714.78;5070962;28;20166;-77
2022/03/26 04:59:44;;;;;;;35.53;16.87;;;;;;;4.49;92.59;101718.22;5072298;28;20166;-73
2022/03/26 05:02:09;;;;;;;40.33;18.87;;;;;;;4.60;92.42;101741.69;5071724;28;20173;-77
2022/03/26 05:04:35;;;;;;;34.13;17.53;;;;;;;4.80;92.08;101757.53;5071615;28;20202;-74
2022/03/26 05:07:00;;;;;;;40.83;15.53;;;;;;;4.91;90.83;101756.66;5071490;28;20178;-77
2022/03/26 05:09:25;;;;;;;47.43;18.63;;;;;;;5.16;89.82;101767.16;5071532;28;20293;-75
2022/03/26 05:11:51;;;;;;;53.97;19.93;;;;;;;5.26;88.91;101767.34;5071717;28;20209;-73
2022/03/26 05:14:17;;;;;;;57.00;21.67;;;;;;;5.27;87.98;101762.75;5070138;28;20174;-79
2022/03/26 05:16:42;;;;;;;44.03;18.93;;;;;;;5.17;87.83;101768.78;5071567;28;20302;-72
2022/03/26 05:19:08;;;;;;;49.57;19.43;;;;;;;4.77;88.91;101741.75;5071507;28;20171;-81
2022/03/26 05:21:33;;;;;;;37.63;18.53;;;;;;;4.62;89.88;101747.69;5071504;28;20556;-75
2022/03/26 05:23:58;;;;;;;43.50;17.43;;;;;;;4.74;89.74;101772.84;5071436;28;20210;-75
2022/03/26 05:26:24;;;;;;;39.60;17.03;;;;;;;4.75;89.63;101774.47;5071272;28;20185;-73
2022/03/26 05:28:50;;;;;;;40.37;18.03;;;;;;;4.70;89.48;101765.44;5071215;28;20255;-76
2022/03/26 05:31:16;;;;;;;34.63;16.60;;;;;;;4.41;88.91;101748.31;5071400;28;20178;-84
2022/03/26 05:33:41;;;;;;;30.97;15.90;;;;;;;4.24;89.24;101739.31;5071303;28;20181;-72
2022/03/26 05:36:07;;;;;;;43.40;17.27;;;;;;;4.51;89.53;101777.50;5070848;28;20191;-74
2022/03/26 05:38:33;;;;;;;32.67;15.47;;;;;;;4.23;89.43;101737.66;5070797;28;20265;-72
2022/03/26 05:40:58;;;;;;;29.50;16.27;;;;;;;4.10;90.13;101742.25;5069767;28;20189;-77
2022/03/26 05:43:24;;;;;;;37.23;17.73;;;;;;;4.03;91.47;101765.88;5070900;28;20576;-74
2022/03/26 05:45:51;;;;;;;32.30;16.70;;;;;;;4.12;91.63;101766.34;5071004;28;20298;-72
2022/03/26 05:48:17;;;;;;;32.17;16.17;;;;;;;3.74;92.73;101737.06;5070550;28;20258;-76
2022/03/26 05:50:44;;;;;;;27.13;16.50;;;;;;;3.71;93.49;101748.34;5071021;28;20216;-71
2022/03/26 05:53:10;;;;;;;30.80;17.03;;;;;;;3.64;94.69;101742.25;5071159;28;20173;-78
2022/03/26 05:55:35;;;;;;;40.40;17.27;;;;;;;3.61;95.65;101758.91;5070681;28;20174;-77
2022/03/26 05:58:01;;;;;;;37.23;16.70;;;;;;;3.47;95.94;101745.63;5071239;28;20171;-79
2022/03/26 06:00:26;;;;;;;33.40;16.70;;;;;;;3.47;96.97;101756.44;5070993;28;20171;-81
2022/03/26 06:02:52;;;;;;;41.70;16.97;;;;;;;3.59;97.25;101767.25;5070710;28;20171;-73
2022/03/26 06:05:17;;;;;;;34.73;16.90;;;;;;;3.80;97.17;101784.81;5070765;28;20166;-74
2022/03/26 06:07:42;;;;;;;33.13;16.97;;;;;;;4.06;96.05;101803.28;5070782;28;20240;-78
2022/03/26 06:10:08;;;;;;;29.07;17.37;;;;;;;4.11;95.23;101800.69;5070884;28;20224;-77
2022/03/26 06:12:35;;;;;;;38.57;17.87;;;;;;;4.24;94.90;101812.34;5070641;28;20241;-80
2022/03/26 06:15:02;;;;;;;31.87;17.40;;;;;;;4.37;94.25;101829.16;5070582;28;20281;-83
2022/03/26 06:17:27;;;;;;;32.37;17.50;;;;;;;4.44;93.65;101823.59;5070262;28;20170;-77
2022/03/26 06:19:53;;;;;;;35.83;18.20;;;;;;;4.40;93.67;101819.75;5070848;28;20247;-81
2022/03/26 06:22:18;;;;;;;42.40;19.77;;;;;;;4.36;93.76;101816.69;5070683;28;20638;-81
2022/03/26 06:24:43;;;;;;;27.67;16.77;;;;;;;4.34;93.92;101818.81;5070282;28;20202;-77
2022/03/26 06:27:09;;;;;;;42.90;17.73;;;;;;;4.46;94.45;101835.84;5070377;28;20520;-74
2022/03/26 06:29:36;;;;;;;39.30;19.00;;;;;;;4.58;94.05;101852.06;5070467;28;20174;-77
2022/03/26 06:32:01;;;;;;;36.73;18.27;;;;;;;4.86;92.98;101858.63;5069128;28;20174;-80
2022/03/26 06:34:28;;;;;;;33.80;17.13;;;;;;;5.10;92.03;101859.41;5066529;28;20543;-81
2022/03/26 06:36:54;;;;;;;45.53;18.33;;;;;;;5.38;90.86;101873.81;5065728;28;20224;-79
2022/03/26 06:39:19;;;;;;;37.73;16.90;;;;;;;5.62;89.32;101879.94;5070334;28;20578;-79
2022/03/26 06:41:45;;;;;;;30.27;17.23;;;;;;;5.87;87.29;101882.28;5070309;28;20660;-83
2022/03/26 06:44:12;;;;;;;39.33;16.40;;;;;;;6.04;85.85;101886.94;5070322;28;20195;-77
2022/03/26 06:46:38;;;;;;;31.43;14.27;;;;;;;6.20;85.00;101880.69;5069916;28;20170;-78
2022/03/26 06:49:07;;;;;;;28.80;15.83;;;;;;;6.28;84.00;101885.72;5070014;28;20390;-80
2022/03/26 06:51:33;;;;;;;16.97;10.80;;;;;;;6.35;83.79;101877.38;5070323;28;20243;-78
2022/03/26 06:53:58;;;;;;;30.70;14.53;;;;;;;6.40;82.30;101877.50;5070122;28;20638;-78
2022/03/26 06:56:24;;;;;;;24.00;12.97;;;;;;;6.47;82.09;101883.56;5068761;28;20186;-76
2022/03/26 06:58:49;;;;;;;20.80;11.17;;;;;;;6.55;82.12;101894.00;5069958;28;20175;-78
2022/03/26 07:01:15;;;;;;;33.63;15.20;;;;;;;6.61;82.00;101890.28;5070070;28;20179;-78
2022/03/26 07:03:40;;;;;;;25.53;14.00;;;;;;;6.66;81.63;101897.72;5070219;28;20658;-79
2022/03/26 07:06:05;;;;;;;29.00;15.97;;;;;;;6.70;81.71;101899.66;5070009;28;20174;-72
2022/03/26 07:08:31;;;;;;;27.37;11.93;;;;;;;6.77;81.09;101899.47;5069550;28;20256;-79
2022/03/26 07:10:56;;;;;;;31.57;16.13;;;;;;;6.89;80.82;101908.34;5068475;28;20635;-77
2022/03/26 07:13:22;;;;;;;26.33;14.00;;;;;;;6.96;80.61;101910.91;5068588;28;20268;-78
2022/03/26 07:15:48;;;;;;;25.03;14.90;;;;;;;6.98;80.25;101912.28;5069273;28;20179;-75
2022/03/26 07:18:13;;;;;;;28.37;13.00;;;;;;;7.02;80.75;101907.97;5066250;28;20182;-78
2022/03/26 07:20:39;;;;;;;28.50;13.73;;;;;;;6.99;81.30;101900.34;5069616;28;20472;-78
2022/03/26 07:23:04;;;;;;;23.93;13.67;;;;;;;7.03;81.90;101895.22;5072285;28;20210;-76
2022/03/26 07:25:30;;;;;;;27.97;13.53;;;;;;;7.12;81.99;101901.88;5073957;28;20232;-75
2022/03/26 07:27:56;;;;;;;17.83;11.80;;;;;;;7.23;81.94;101900.91;5072233;28;20182;-78
2022/03/26 07:30:21;;;;;;;6.90;5.40;;;;;;;7.30;80.72;101901.53;5073288;28;20270;-76
2022/03/26 07:32:46;;;;;;;16.03;9.60;;;;;;;7.35;81.15;101901.59;5069713;28;20269;-77
2022/03/26 07:35:12;;;;;;;36.27;17.33;;;;;;;7.42;81.06;101899.50;5073496;28;20265;-78
2022/03/26 07:37:37;;;;;;;16.93;10.67;;;;;;;7.52;81.70;101906.13;5071905;28;20214;-80
2022/03/26 07:40:04;;;;;;;32.83;15.27;;;;;;;7.54;83.23;101904.81;5073212;28;20456;-79
2022/03/26 07:42:29;;;;;;;28.57;15.87;;;;;;;7.63;82.75;101907.88;5073075;28;20228;-76
2022/03/26 07:44:56;;;;;;;18.97;12.20;;;;;;;7.80;82.27;101910.50;5072047;28;20206;-79
2022/03/26 07:47:21;;;;;;;16.90;10.80;;;;;;;7.90;81.27;101914.16;5072000;28;20175;-77
2022/03/26 07:49:47;;;;;;;17.40;11.77;;;;;;;8.02;81.35;101905.84;5069799;28;20170;-75
2022/03/26 07:52:12;;;;;;;18.43;6.70;;;;;;;8.16;80.13;101906.25;5073355;28;20537;-77
2022/03/26 07:54:38;;;;;;;27.20;13.73;;;;;;;8.30;80.43;101900.09;5073191;28;20167;-79
2022/03/26 07:57:04;;;;;;;11.10;7.60;;;;;;;8.44;79.59;101905.13;5071646;28;20685;-79
2022/03/26 07:59:29;;;;;;;17.77;10.53;;;;;;;8.53;78.85;101914.44;5073112;28;20179;-78
2022/03/26 08:01:55;;;;;;;14.53;8.97;;;;;;;8.66;80.21;101914.00;5073087;28;20173;-76
2022/03/26 08:04:20;;;;;;;17.90;12.17;;;;;;;8.78;79.76;101903.72;5073825;28;20645;-72
2022/03/26 08:06:46;;;;;;;21.03;12.60;;;;;;;8.98;79.36;101910.41;5075435;28;20250;-73
2022/03/26 08:09:11;;;;;;;18.83;10.37;;;;;;;9.08;78.49;101916.69;5080453;28;20170;-72
2022/03/26 08:11:36;;;;;;;28.23;15.73;;;;;;;9.24;78.11;101920.31;5073446;28;20625;-73
2022/03/26 08:14:02;;;;;;;13.73;10.40;;;;;;;9.39;77.66;101925.84;5073187;28;20182;-71
2022/03/26 08:16:27;;;;;;;18.03;8.37;;;;;;;9.58;77.20;101928.09;5073243;28;20171;-71
2022/03/26 08:18:52;;;;;;;26.17;15.23;;;;;;;9.68;75.83;101923.47;5072809;28;20167;-72
2022/03/26 08:21:18;;;;;;;21.67;11.23;;;;;;;9.85;75.29;101939.66;5073265;28;20178;-71
2022/03/26 08:23:43;;;;;;;23.07;15.37;;;;;;;9.98;75.36;101944.59;5071487;28;20230;-71
2022/03/26 08:26:26;;;;;;;30.07;15.80;;;;;;;10.09;74.42;101948.94;5072684;28;20166;-72
2022/03/26 08:28:53;;;;;;;21.67;15.57;;;;;;;10.31;74.92;101953.38;5072695;28;20371;-73
2022/03/26 08:31:20;;;;;;;15.27;10.40;;;;;;;10.41;73.58;101951.50;5072276;28;20170;-73
2022/03/26 08:33:46;;;;;;;25.23;14.60;;;;;;;10.53;73.55;101956.66;5072170;28;20696;-71
2022/03/26 08:36:13;;;;;;;24.90;15.20;;;;;;;10.56;72.59;101947.09;5072473;28;20266;-71
2022/03/26 08:38:38;;;;;;;29.57;16.27;;;;;;;10.66;72.53;101952.56;5072215;28;20665;-72
2022/03/26 08:41:04;;;;;;;28.60;16.20;;;;;;;10.70;72.29;101957.22;5072112;28;20175;-73
2022/03/26 08:43:30;;;;;;;23.23;15.40;;;;;;;10.67;71.87;101956.91;5072311;28;20557;-73
2022/03/26 08:45:55;;;;;;;21.70;14.77;;;;;;;10.64;72.17;101962.94;5072346;28;20171;-74
2022/03/26 08:48:21;;;;;;;28.90;16.73;;;;;;;10.73;72.67;101962.13;5072214;28;20198;-76
2022/03/26 08:50:47;;;;;;;26.10;15.90;;;;;;;10.80;72.96;101967.28;5072171;28;20192;-76
2022/03/26 08:53:13;;;;;;;27.70;14.80;;;;;;;10.98;73.26;101983.13;5072090;28;20210;-75
2022/03/26 08:55:38;;;;;;;28.87;16.13;;;;;;;11.06;73.06;101980.94;5071435;28;20210;-76
2022/03/26 08:58:04;;;;;;;23.40;16.47;;;;;;;11.11;72.50;101976.25;5066982;28;20187;-74
2022/03/26 09:00:29;;;;;;;23.57;14.57;;;;;;;11.30;72.85;101987.44;5071861;28;20179;-75
2022/03/26 09:02:55;;;;;;;30.40;16.90;;;;;;;11.27;71.76;101977.03;5072264;28;20689;-72
2022/03/26 09:05:21;;;;;;;25.40;16.47;;;;;;;11.27;71.85;101977.03;5071759;28;20198;-72
2022/03/26 09:07:46;;;;;;;24.00;16.40;;;;;;;11.40;71.88;101983.84;5071749;28;20178;-75
2022/03/26 09:10:12;;;;;;;31.67;16.33;;;;;;;11.43;71.24;101980.53;5071862;28;20170;-73
2022/03/26 09:12:37;;;;;;;25.00;15.23;;;;;;;11.54;71.58;101979.41;5071727;28;20174;-72
2022/03/26 09:15:06;;;;;;;22.97;15.73;;;;;;;11.72;69.89;101991.69;5071458;28;20186;-72
2022/03/26 09:17:32;;;;;;;24.07;13.60;;;;;;;11.89;69.60;101990.25;5071012;28;20642;-77
2022/03/26 09:19:58;;;;;;;11.53;9.13;;;;;;;12.03;67.26;101995.09;5071296;28;20162;-73
2022/03/26 09:22:23;;;;;;;24.30;15.37;;;;;;;12.08;66.22;101984.91;5071109;28;20186;-72
2022/03/26 09:24:49;;;;;;;19.90;11.50;;;;;;;12.29;65.87;102001.22;5070996;28;20215;-72
2022/03/26 09:27:14;;;;;;;15.93;12.23;;;;;;;12.37;64.77;101995.16;5070863;28;20177;-73
2022/03/26 09:29:39;;;;;;;21.13;13.27;;;;;;;12.35;63.49;101984.47;5071148;28;20224;-74
2022/03/26 09:32:05;;;;;;;24.37;13.47;;;;;;;12.38;63.90;101977.59;5071053;28;20539;-73
2022/03/26 09:34:30;;;;;;;19.77;11.63;;;;;;;12.51;63.10;101990.66;5070997;28;20174;-78
2022/03/26 09:36:56;;;;;;;19.17;11.20;;;;;;;12.59;63.58;101990.03;5070545;28;20540;-72
2022/03/26 09:39:21;;;;;;;17.33;11.63;;;;;;;12.68;62.80;101998.47;5070719;28;20194;-73
2022/03/26 09:41:47;;;;;;;14.73;10.20;;;;;;;12.66;62.20;101992.44;5070518;28;20173;-75
2022/03/26 09:44:13;;;;;;;11.17;8.10;;;;;;;12.75;61.60;101990.72;5070425;28;20206;-73
2022/03/26 09:46:39;;;;;;;19.33;13.33;;;;;;;12.75;62.28;101980.59;5070745;28;20696;-73
2022/03/26 09:49:05;;;;;;;13.70;8.80;;;;;;;12.85;63.16;101998.03;5070935;28;20186;-72
2022/03/26 09:51:32;;;;;;;18.30;12.80;;;;;;;12.82;63.16;101983.78;5070603;28;20242;-76
2022/03/26 09:53:57;;;;;;;16.27;11.73;;;;;;;12.83;62.79;101984.59;5070647;28;20179;-72
2022/03/26 09:56:24;;;;;;;19.17;12.57;;;;;;;12.87;63.12;101988.41;5070545;28;20185;-72
2022/03/26 09:58:53;;;;;;;15.97;12.13;;;;;;;12.89;63.08;101985.41;5070316;28;20226;-74
2022/03/26 10:01:19;;;;;;;19.43;13.20;;;;;;;13.02;63.69;101980.06;5069123;28;20174;-73
2022/03/26 10:04:11;;;;;;;17.37;12.87;;;;;;;13.09;63.38;101975.03;5070368;28;20219;-73
2022/03/26 10:06:37;;;;;;;21.13;15.17;;;;;;;13.20;63.68;101975.78;5069002;28;20193;-75
2022/03/26 10:09:03;;;;;;;22.17;14.47;;;;;;;13.33;63.37;101982.50;5070258;28;20256;-73
2022/03/26 10:11:33;;;;;;;20.27;14.77;;;;;;;13.34;63.56;101984.94;5070411;28;20634;-72
2022/03/26 10:13:59;;;;;;;20.23;11.97;;;;;;;13.41;63.39;101973.59;5070193;28;20197;-71
2022/03/26 10:16:25;;;;;;;22.07;12.83;;;;;;;13.40;63.51;101961.78;5070164;28;20709;-72
2022/03/26 10:18:51;;;;;;;22.20;14.07;;;;;;;13.53;62.78;101971.25;5070069;28;20842;-72
2022/03/26 10:21:19;;;;;;;15.93;12.43;;;;;;;13.45;62.50;101958.16;5070270;28;20170;-73
2022/03/26 10:23:45;;;;;;;12.43;11.07;;;;;;;13.50;62.17;101962.78;5070162;28;20205;-72
2022/03/26 10:26:14;;;;;;;19.00;12.80;;;;;;;13.49;61.76;101961.97;5067413;28;20189;-73
2022/03/26 10:28:40;;;;;;;15.43;12.47;;;;;;;13.69;62.76;101969.13;5060713;28;20198;-73
2022/03/26 10:34:07;;;;;;;20.97;12.17;;;;;;;13.96;62.74;101973.97;5070574;28;20170;-74
2022/03/26 10:36:34;;;;;;;18.93;10.50;;;;;;;13.92;61.50;101970.19;5070389;28;20174;-76
2022/03/26 10:39:00;;;;;;;22.50;13.30;;;;;;;13.94;61.32;101966.03;5070134;28;20269;-74
2022/03/26 10:41:25;;;;;;;10.73;9.03;;;;;;;14.14;61.16;101967.66;5070219;28;20614;-72
2022/03/26 10:44:12;;;;;;;12.83;9.33;;;;;;;14.09;60.74;101970.50;5070275;28;20225;-73
2022/03/26 10:46:46;;;;;;;10.87;9.50;;;;;;;14.13;60.43;101968.78;5069011;28;20614;-75
2022/03/26 10:49:13;;;;;;;12.90;10.57;;;;;;;14.20;60.64;101960.16;5070223;28;20178;-73
2022/03/26 10:51:41;;;;;;;13.20;9.47;;;;;;;14.21;59.99;101954.38;5068958;28;20599;-73
2022/03/26 10:54:11;;;;;;;15.70;10.43;;;;;;;14.32;60.52;101963.28;5070290;28;20163;-73
2022/03/26 10:56:38;;;;;;;20.20;13.63;;;;;;;14.42;60.90;101963.09;5073022;28;20247;-72
2022/03/26 10:59:03;;;;;;;14.87;11.07;;;;;;;14.59;60.41;101965.31;5074469;28;20178;-71
2022/03/26 11:01:29;;;;;;;14.80;13.00;;;;;;;14.50;59.32;101961.66;5074237;28;20236;-79
2022/03/26 11:03:54;;;;;;;18.13;12.20;;;;;;;14.52;59.61;101962.16;5074340;28;20209;-73
2022/03/26 11:06:24;;;;;;;14.67;12.43;;;;;;;14.48;58.96;101950.94;5071774;28;20524;-72
2022/03/26 11:08:51;;;;;;;19.03;13.30;;;;;;;14.53;59.38;101955.53;5073806;28;20202;-72
2022/03/26 11:11:18;;;;;;;13.90;11.83;;;;;;;14.47;58.62;101957.56;5073522;28;20175;-73
2022/03/26 11:13:46;;;;;;;13.50;11.47;;;;;;;14.62;59.88;101964.75;5074173;28;20593;-72